Time;durP1;ratioP1;P1;durP2;ratioP2;P2;SDS_P1;SDS_P2;PMS_P1;PMS_P2;Temp;Humidity;BMP_temperature;BMP_pressure;BME280_temperature;BME280_humidity;BME280_pressure;Samples;Min_cycle;Max_cycle;Signal;HPM_P1;HPM_P2
2023/03/17 00:02:05;;;;;;;3.20;1.00;;;;;;;3.64;66.27;100767.34;105227;1260;62623;-46
2023/03/17 00:04:35;;;;;;;3.70;1.20;;;;;;;3.41;66.68;100763.70;105115;1257;64768;-47
2023/03/17 00:07:04;;;;;;;1.50;0.50;;;;;;;3.37;67.02;100767.17;105277;1261;60478;-48
2023/03/17 00:09:34;;;;;;;3.90;0.90;;;;;;;3.37;66.95;100769.60;105081;1257;60444;-48
2023/03/17 00:12:09;;;;;;;5.10;2.10;;;;;;;3.37;67.00;100774.98;105297;1262;66102;-47
2023/03/17 00:14:40;;;;;;;3.60;1.40;;;;;;;3.35;66.88;100775.91;105058;1259;62775;-48
2023/03/17 00:17:10;;;;;;;3.70;1.00;;;;;;;3.36;66.72;100779.20;105259;1257;63708;-47
2023/03/17 00:19:39;;;;;;;3.70;1.10;;;;;;;3.37;66.63;100775.67;105214;1261;62744;-47
2023/03/17 00:22:16;;;;;;;3.20;0.70;;;;;;;3.33;66.67;100777.77;105283;1257;60457;-48
2023/03/17 00:24:45;;;;;;;1.80;0.50;;;;;;;3.32;66.70;100778.45;105187;1263;65337;-47
2023/03/17 00:27:16;;;;;;;5.40;1.20;;;;;;;3.37;66.51;100778.95;107859;1256;62649;-46
2023/03/17 00:29:45;;;;;;;1.90;0.60;;;;;;;3.37;66.42;100787.31;105205;1258;65023;-47
2023/03/17 00:32:17;;;;;;;6.10;0.80;;;;;;;3.35;66.38;100789.11;105290;1257;62300;-49
2023/03/17 00:34:45;;;;;;;2.50;0.60;;;;;;;3.40;66.02;100788.70;105748;1261;61057;-48
2023/03/17 00:37:16;;;;;;;2.00;0.80;;;;;;;3.36;66.11;100792.52;104997;1257;66206;-47
2023/03/17 00:39:44;;;;;;;3.60;0.80;;;;;;;3.32;66.01;100796.66;105226;1257;62349;-48
2023/03/17 00:42:14;;;;;;;2.80;0.80;;;;;;;3.31;66.11;100802.10;104948;1262;64830;-48
2023/03/17 00:44:42;;;;;;;3.30;0.50;;;;;;;3.28;66.08;100802.23;105221;1263;60483;-49
2023/03/17 00:47:15;;;;;;;2.90;0.80;;;;;;;3.29;65.87;100798.88;105172;1257;60570;-48
2023/03/17 00:49:44;;;;;;;2.00;0.50;;;;;;;3.32;65.69;100800.65;105144;1258;64895;-46
2023/03/17 00:52:14;;;;;;;3.30;0.90;;;;;;;3.31;65.89;100801.75;104783;1263;61672;-48
2023/03/17 00:54:42;;;;;;;4.20;1.50;;;;;;;3.33;65.67;100803.23;105141;1262;64887;-48
2023/03/17 00:57:11;;;;;;;2.20;0.70;;;;;;;3.36;65.47;100804.33;105346;1260;61637;-47
2023/03/17 00:59:41;;;;;;;4.10;1.10;;;;;;;3.33;65.29;100802.55;104968;1257;60533;-46
2023/03/17 01:02:11;;;;;;;2.40;0.40;;;;;;;3.30;65.30;100801.84;105577;1261;65845;-47
2023/03/17 01:04:43;;;;;;;3.60;0.50;;;;;;;3.32;65.35;100802.73;105275;1263;61740;-46
2023/03/17 01:07:21;;;;;;;2.30;0.70;;;;;;;3.30;65.07;100800.77;105369;1263;64816;-46
2023/03/17 01:09:49;;;;;;;2.90;0.80;;;;;;;3.27;64.88;100802.46;104921;1264;60496;-47
2023/03/17 01:12:19;;;;;;;2.70;0.70;;;;;;;3.23;65.06;100797.93;105163;1257;60565;-47
2023/03/17 01:14:49;;;;;;;3.10;0.80;;;;;;;3.21;65.13;100791.25;104886;1265;66127;-47
2023/03/17 01:17:18;;;;;;;4.80;0.70;;;;;;;3.22;64.99;100795.38;105180;1263;62546;-46
2023/03/17 01:19:49;;;;;;;3.10;0.70;;;;;;;3.20;64.99;100794.77;105130;1257;65063;-46
2023/03/17 01:22:18;;;;;;;0.80;0.20;;;;;;;3.21;65.25;100794.90;105031;1265;60488;-47
2023/03/17 01:24:47;;;;;;;1.90;0.70;;;;;;;3.22;65.16;100792.28;105232;1262;60476;-47
2023/03/17 01:27:17;;;;;;;4.90;0.90;;;;;;;3.28;64.94;100799.82;105318;1260;66320;-47
2023/03/17 01:29:46;;;;;;;4.50;0.90;;;;;;;3.27;64.96;100806.26;105171;1262;61805;-47
2023/03/17 01:32:15;;;;;;;2.00;0.60;;;;;;;3.23;65.04;100802.63;105348;1263;65117;-47
2023/03/17 01:34:43;;;;;;;1.90;0.50;;;;;;;3.24;64.93;100799.29;105128;1257;60440;-47
2023/03/17 01:37:13;;;;;;;1.80;0.50;;;;;;;3.28;64.65;100802.77;105055;1257;60667;-47
2023/03/17 01:39:42;;;;;;;4.50;1.10;;;;;;;3.28;64.62;100807.27;105143;1258;65970;-47
2023/03/17 01:42:30;;;;;;;2.70;0.50;;;;;;;3.21;64.78;100802.39;105151;1262;63869;-47
2023/03/17 01:45:04;;;;;;;3.30;0.70;;;;;;;3.21;64.80;100800.83;104971;1265;73695;-47
2023/03/17 01:47:33;;;;;;;2.10;0.30;;;;;;;3.26;64.82;100805.44;105116;1257;60484;-47
2023/03/17 01:50:06;;;;;;;4.40;0.60;;;;;;;3.29;64.85;100813.46;105185;1257;61381;-47
2023/03/17 01:52:38;;;;;;;1.30;0.20;;;;;;;3.23;64.94;100811.48;105804;1260;65139;-47
2023/03/17 01:55:13;;;;;;;3.60;0.50;;;;;;;3.32;64.59;100822.52;104948;1263;62584;-47
2023/03/17 01:57:50;;;;;;;2.60;0.60;;;;;;;3.49;64.18;100824.56;105195;1263;65060;-47
2023/03/17 02:00:20;;;;;;;3.50;0.80;;;;;;;3.48;64.03;100823.92;104879;1264;60668;-47
2023/03/17 02:02:51;;;;;;;2.10;0.20;;;;;;;3.40;64.27;100825.48;105197;1261;60681;-47
2023/03/17 02:05:22;;;;;;;4.80;0.60;;;;;;;3.48;64.03;100837.09;105160;1263;65214;-47
2023/03/17 02:07:52;;;;;;;2.10;0.30;;;;;;;3.51;63.92;100834.02;105184;1263;61271;-46
2023/03/17 02:10:25;;;;;;;1.30;0.30;;;;;;;3.36;64.30;100837.59;105996;1261;67102;-48
2023/03/17 02:12:55;;;;;;;3.10;0.60;;;;;;;3.30;64.63;100839.77;105389;1263;60644;-48
2023/03/17 02:15:34;;;;;;;1.00;0.20;;;;;;;3.42;64.44;100841.55;105299;1263;60345;-48
2023/03/17 02:18:05;;;;;;;2.30;0.50;;;;;;;3.50;64.08;100842.41;105093;1263;66094;-47
2023/03/17 02:20:38;;;;;;;2.80;0.50;;;;;;;3.39;64.32;100844.94;105175;1257;62654;-47
2023/03/17 02:23:10;;;;;;;5.60;0.90;;;;;;;3.39;64.29;100843.54;105163;1260;65058;-47
2023/03/17 02:25:41;;;;;;;1.80;0.30;;;;;;;3.39;64.16;100843.56;105361;1262;60460;-47
2023/03/17 02:28:13;;;;;;;2.90;0.50;;;;;;;3.48;64.05;100854.77;104998;1263;61767;-47
2023/03/17 02:30:42;;;;;;;2.40;0.60;;;;;;;3.40;64.42;100860.14;105237;1260;66160;-47
2023/03/17 02:33:11;;;;;;;1.50;0.70;;;;;;;3.45;64.41;100861.87;105053;1262;62306;-47
2023/03/17 02:35:41;;;;;;;1.60;0.60;;;;;;;3.53;64.28;100865.66;105054;1257;63789;-47
2023/03/17 02:38:11;;;;;;;1.20;0.30;;;;;;;3.58;64.07;100862.02;105371;1257;60545;-47
2023/03/17 02:40:39;;;;;;;3.20;0.30;;;;;;;3.55;64.11;100862.66;105086;1262;60322;-47
2023/03/17 02:43:08;;;;;;;2.70;0.60;;;;;;;3.52;63.97;100857.77;105227;1261;66236;-46
2023/03/17 02:45:36;;;;;;;6.30;0.70;;;;;;;3.41;64.16;100856.48;105279;1261;62233;-47
2023/03/17 02:48:06;;;;;;;0.70;0.20;;;;;;;3.43;64.26;100859.15;105052;1263;328323;-49
2023/03/17 02:51:44;;;;;;;1.90;0.50;;;;;;;3.20;65.12;100866.58;102363;1292;600822;-46
2023/03/17 02:54:14;;;;;;;2.10;0.40;;;;;;;3.21;64.94;100865.29;104789;1269;59376;-46
2023/03/17 02:56:42;;;;;;;1.50;0.40;;;;;;;3.23;65.03;100868.51;104559;1266;59328;-46
2023/03/17 02:59:17;;;;;;;1.60;0.50;;;;;;;3.27;65.02;100871.96;104921;1267;64602;-46
2023/03/17 03:01:47;;;;;;;2.50;0.70;;;;;;;3.27;65.02;100871.45;104721;1267;63237;-46
2023/03/17 03:04:18;;;;;;;10.40;0.70;;;;;;;3.27;65.17;100865.04;104505;1267;189686;-46
2023/03/17 03:06:46;;;;;;;1.70;0.30;;;;;;;3.25;65.26;100872.42;104686;1264;59272;-47
2023/03/17 03:09:16;;;;;;;1.50;0.50;;;;;;;3.25;65.17;100870.67;104974;1267;59373;-46
2023/03/17 03:11:44;;;;;;;2.40;0.70;;;;;;;3.23;65.15;100871.31;104822;1267;65163;-46
2023/03/17 03:14:14;;;;;;;1.60;0.40;;;;;;;3.20;65.44;100872.64;105221;1267;61932;-46
2023/03/17 03:16:43;;;;;;;1.80;0.30;;;;;;;3.20;65.37;100875.41;104855;1267;73183;-46
2023/03/17 03:19:13;;;;;;;1.00;0.20;;;;;;;3.22;65.34;100877.23;104874;1264;59618;-46
2023/03/17 03:21:42;;;;;;;3.00;1.00;;;;;;;3.23;65.30;100878.21;104807;1263;59566;-47
2023/03/17 03:24:10;;;;;;;3.50;0.50;;;;;;;3.22;65.26;100885.21;104747;1267;65623;-46
2023/03/17 03:26:40;;;;;;;1.10;0.40;;;;;;;3.23;65.49;100885.48;104604;1263;62745;-48
2023/03/17 03:29:08;;;;;;;3.30;0.90;;;;;;;3.25;65.19;100885.95;104688;1263;65081;-47
2023/03/17 03:31:38;;;;;;;1.90;0.60;;;;;;;3.30;65.14;100893.04;105414;1263;59829;-47
2023/03/17 03:34:06;;;;;;;1.80;0.70;;;;;;;3.24;65.18;100889.95;104791;1263;59675;-47
2023/03/17 03:36:35;;;;;;;2.60;0.60;;;;;;;3.20;65.21;100890.48;104498;1266;65105;-46
2023/03/17 03:39:04;;;;;;;3.00;0.40;;;;;;;3.26;65.21;100898.05;104568;1264;61680;-46
2023/03/17 03:41:32;;;;;;;2.00;0.30;;;;;;;3.30;65.15;100903.77;104841;1263;64793;-46
2023/03/17 03:44:01;;;;;;;1.60;0.50;;;;;;;3.27;65.14;100900.96;105019;1264;59730;-46
2023/03/17 03:46:30;;;;;;;3.50;0.40;;;;;;;3.24;65.24;100909.58;104844;1263;59679;-46
2023/03/17 03:48:59;;;;;;;2.00;0.30;;;;;;;3.26;65.22;100912.25;104878;1266;65713;-47
2023/03/17 03:51:28;;;;;;;2.60;0.30;;;;;;;3.31;65.07;100911.70;105023;1263;61811;-47
2023/03/17 03:53:56;;;;;;;2.20;0.70;;;;;;;3.31;65.12;100913.45;104592;1267;65220;-47
2023/03/17 03:56:28;;;;;;;1.20;0.30;;;;;;;3.29;65.19;100912.64;104714;1264;59765;-46
2023/03/17 03:58:57;;;;;;;1.80;0.60;;;;;;;3.30;65.19;100916.05;105103;1264;59656;-46
2023/03/17 04:01:27;;;;;;;1.60;0.30;;;;;;;3.34;65.10;100916.06;104655;1266;65398;-47
2023/03/17 04:03:55;;;;;;;3.30;1.00;;;;;;;3.34;65.05;100923.02;104809;1263;61363;-47
2023/03/17 04:06:23;;;;;;;16.70;0.80;;;;;;;3.33;64.96;100918.89;104599;1266;65049;-47
2023/03/17 04:08:54;;;;;;;2.30;0.60;;;;;;;3.29;65.05;100922.88;104853;1264;59771;-47
2023/03/17 04:11:26;;;;;;;2.40;0.60;;;;;;;3.35;64.94;100927.51;104684;1263;59743;-47
2023/03/17 04:13:54;;;;;;;2.60;0.70;;;;;;;3.48;64.39;100929.54;104546;1266;65399;-47
2023/03/17 04:16:23;;;;;;;1.60;0.50;;;;;;;3.38;64.71;100935.34;104962;1266;62684;-48
2023/03/17 04:18:51;;;;;;;2.50;0.60;;;;;;;3.23;65.31;100937.85;104600;1269;63857;-47
2023/03/17 04:21:24;;;;;;;2.40;0.80;;;;;;;3.25;65.46;100941.27;106969;1263;59346;-47
2023/03/17 04:23:52;;;;;;;6.20;1.70;;;;;;;3.29;65.33;100943.15;104790;1264;59803;-47
2023/03/17 04:26:22;;;;;;;3.20;0.70;;;;;;;3.23;65.32;100942.36;104753;1267;65177;-47
2023/03/17 04:28:51;;;;;;;1.80;0.50;;;;;;;3.24;65.44;100944.77;104850;1265;61544;-47
2023/03/17 04:31:19;;;;;;;5.10;0.70;;;;;;;3.29;65.18;100948.73;105105;1267;65015;-48
2023/03/17 04:33:48;;;;;;;2.50;0.90;;;;;;;3.26;65.17;100952.31;104844;1263;60839;-47
2023/03/17 04:36:20;;;;;;;3.10;0.60;;;;;;;3.27;65.11;100958.16;104585;1263;60133;-48
2023/03/17 04:38:51;;;;;;;2.60;0.80;;;;;;;3.24;65.23;100962.44;104592;1267;65435;-48
2023/03/17 04:41:20;;;;;;;1.70;0.50;;;;;;;3.21;65.39;100963.27;104433;1263;70065;-47
2023/03/17 04:43:48;;;;;;;2.10;0.60;;;;;;;3.28;65.35;100971.13;105067;1260;74028;-47
2023/03/17 04:46:17;;;;;;;2.60;0.70;;;;;;;3.30;65.36;100971.04;105248;1256;61349;-48
2023/03/17 04:48:46;;;;;;;2.50;0.80;;;;;;;3.31;65.35;100969.80;105078;1257;59763;-48
2023/03/17 04:51:15;;;;;;;2.60;0.90;;;;;;;3.28;65.43;100972.34;105084;1260;65501;-47
2023/03/17 04:53:44;;;;;;;3.00;0.90;;;;;;;3.35;65.36;100977.63;105153;1257;62381;-47
2023/03/17 04:56:13;;;;;;;3.70;1.10;;;;;;;3.39;65.46;100980.39;105197;1257;64966;-47
2023/03/17 04:58:44;;;;;;;4.60;0.90;;;;;;;3.40;65.35;100981.73;105067;1257;59771;-47
2023/03/17 05:01:13;;;;;;;3.20;0.80;;;;;;;3.41;65.45;100982.59;105159;1260;59812;-47
2023/03/17 05:03:42;;;;;;;3.50;0.90;;;;;;;3.44;65.35;100985.24;105074;1260;65375;-47
2023/03/17 05:06:10;;;;;;;3.80;0.70;;;;;;;3.45;65.01;100979.48;105307;1257;62454;-46
2023/03/17 05:08:39;;;;;;;1.60;0.50;;;;;;;3.45;64.89;100984.67;105338;1260;65224;-48
2023/03/17 05:11:08;;;;;;;4.10;1.40;;;;;;;3.43;64.95;100989.08;105250;1257;60127;-48
2023/03/17 05:13:41;;;;;;;2.40;0.50;;;;;;;3.44;65.02;100991.46;104986;1260;59569;-47
2023/03/17 05:16:10;;;;;;;2.60;0.70;;;;;;;3.48;65.14;100992.52;105040;1257;65127;-47
2023/03/17 05:18:40;;;;;;;2.90;1.10;;;;;;;3.52;64.90;100993.22;105359;1257;62486;-48
2023/03/17 05:21:09;;;;;;;4.70;1.10;;;;;;;3.56;64.88;100996.20;105170;1260;63996;-48
2023/03/17 05:23:37;;;;;;;4.90;1.00;;;;;;;3.55;64.87;100999.35;105110;1260;59743;-47
2023/03/17 05:26:06;;;;;;;2.70;0.70;;;;;;;3.52;64.86;100998.60;105160;1260;60503;-47
2023/03/17 05:28:36;;;;;;;3.40;0.90;;;;;;;3.54;64.79;101002.84;105048;1261;65742;-51
2023/03/17 05:31:04;;;;;;;2.30;0.60;;;;;;;3.60;64.60;101001.76;105247;1257;62798;-48
2023/03/17 05:33:36;;;;;;;2.90;0.80;;;;;;;3.62;64.35;101005.84;105069;1257;65006;-48
2023/03/17 05:36:04;;;;;;;2.80;0.80;;;;;;;3.65;64.27;101008.51;105072;1257;59701;-48
2023/03/17 05:38:34;;;;;;;3.40;0.90;;;;;;;3.56;64.40;101006.96;105571;1257;59652;-47
2023/03/17 05:41:04;;;;;;;4.20;1.40;;;;;;;3.48;64.46;101002.58;104960;1262;65357;-48
2023/03/17 05:43:32;;;;;;;3.80;0.90;;;;;;;3.51;64.38;101014.95;104951;1258;62361;-49
2023/03/17 05:46:01;;;;;;;2.80;0.90;;;;;;;3.58;64.30;101016.58;105163;1260;64984;-48
2023/03/17 05:48:31;;;;;;;2.70;0.80;;;;;;;3.61;64.42;101017.33;105241;1260;59646;-49
2023/03/17 05:50:59;;;;;;;4.00;1.30;;;;;;;3.61;64.53;101020.12;105071;1260;59675;-49
2023/03/17 05:53:28;;;;;;;3.80;0.90;;;;;;;3.61;64.54;101021.30;104991;1257;65182;-48
2023/03/17 05:55:56;;;;;;;2.20;0.60;;;;;;;3.58;64.40;101021.09;105131;1260;62634;-48
2023/03/17 05:58:25;;;;;;;2.90;0.70;;;;;;;3.59;64.32;101025.38;105517;1257;65181;-48
2023/03/17 06:00:55;;;;;;;3.10;1.10;;;;;;;3.63;64.42;101028.69;105271;1258;59697;-49
2023/03/17 06:03:25;;;;;;;3.50;1.10;;;;;;;3.65;64.57;101032.95;107538;1257;59676;-47
2023/03/17 06:05:54;;;;;;;4.50;2.00;;;;;;;3.64;64.25;101034.92;105420;1260;65037;-46
2023/03/17 06:08:22;;;;;;;3.30;1.20;;;;;;;3.61;64.05;101030.52;105172;1260;70247;-49
2023/03/17 06:10:52;;;;;;;3.10;0.70;;;;;;;3.59;64.18;101037.73;105415;1257;65050;-47
2023/03/17 06:13:20;;;;;;;3.10;1.00;;;;;;;3.71;64.05;101040.89;105312;1257;59717;-48
2023/03/17 06:15:51;;;;;;;2.50;0.80;;;;;;;3.69;64.38;101038.15;105288;1257;60314;-47
2023/03/17 06:18:20;;;;;;;5.60;1.30;;;;;;;3.65;64.33;101038.18;105180;1257;64171;-46
2023/03/17 06:20:49;;;;;;;3.70;1.20;;;;;;;3.63;64.42;101042.24;105572;1257;62430;-47
2023/03/17 06:23:20;;;;;;;2.40;0.80;;;;;;;3.61;64.48;101043.86;105251;1257;64980;-49
2023/03/17 06:25:49;;;;;;;4.60;2.30;;;;;;;3.65;64.35;101044.41;105384;1257;59809;-47
2023/03/17 06:28:17;;;;;;;3.10;0.80;;;;;;;3.67;64.36;101045.20;105269;1256;59698;-47
2023/03/17 06:30:46;;;;;;;3.70;1.00;;;;;;;3.67;64.38;101045.35;105057;1260;65498;-47
2023/03/17 06:33:17;;;;;;;4.90;1.00;;;;;;;3.65;64.25;101047.85;104966;1260;62575;-46
2023/03/17 06:35:46;;;;;;;3.90;1.00;;;;;;;3.64;64.31;101044.44;105262;1256;64984;-46
2023/03/17 06:38:16;;;;;;;3.50;1.10;;;;;;;3.71;64.36;101050.08;105259;1257;59642;-47
2023/03/17 06:40:49;;;;;;;4.60;1.20;;;;;;;3.80;64.43;101054.40;105143;1256;59748;-48
2023/03/17 06:43:18;;;;;;;2.70;1.10;;;;;;;3.83;63.95;101049.40;105255;1260;65363;-47
2023/03/17 06:45:46;;;;;;;3.90;1.10;;;;;;;3.87;63.68;101050.42;108998;1256;62396;-46
2023/03/17 06:48:16;;;;;;;5.90;2.50;;;;;;;3.86;63.76;101056.41;108923;1256;65168;-47
2023/03/17 06:50:49;;;;;;;4.50;1.10;;;;;;;3.84;63.96;101055.59;109086;1256;57714;-47
2023/03/17 06:53:18;;;;;;;3.50;1.40;;;;;;;3.83;64.12;101053.89;108988;1257;61635;-47
2023/03/17 06:55:47;;;;;;;2.80;0.90;;;;;;;3.90;64.05;101059.52;109060;1255;72725;-47
2023/03/17 06:58:16;;;;;;;5.70;2.30;;;;;;;3.98;64.02;101062.50;107458;1260;63884;-47
2023/03/17 07:00:44;;;;;;;3.80;0.80;;;;;;;3.98;63.87;101057.48;105344;1257;65193;-48
2023/03/17 07:03:13;;;;;;;3.40;1.10;;;;;;;3.97;63.99;101062.20;105291;1257;60569;-49
2023/03/17 07:05:45;;;;;;;2.50;0.90;;;;;;;3.93;64.25;101062.52;105017;1258;60552;-48
2023/03/17 07:08:14;;;;;;;7.70;2.70;;;;;;;3.98;64.31;101065.98;104997;1257;65253;-47
2023/03/17 07:10:44;;;;;;;4.70;1.40;;;;;;;4.00;64.30;101067.45;105222;1257;62681;-47
2023/03/17 07:13:16;;;;;;;3.60;1.30;;;;;;;3.98;64.04;101066.32;105078;1260;66269;-47
2023/03/17 07:15:45;;;;;;;5.40;1.70;;;;;;;3.94;63.91;101068.73;105198;1257;60489;-48
2023/03/17 07:18:19;;;;;;;5.20;2.60;;;;;;;3.86;63.91;101072.18;104883;1257;62566;-47
2023/03/17 07:20:49;;;;;;;3.50;1.30;;;;;;;3.91;64.23;101074.78;106669;1257;68069;-46
2023/03/17 07:23:19;;;;;;;5.50;1.60;;;;;;;3.98;64.31;101083.14;104927;1256;62753;-48
2023/03/17 07:25:49;;;;;;;6.20;3.70;;;;;;;4.04;64.13;101078.73;105416;1257;65145;-48
2023/03/17 07:28:20;;;;;;;4.30;1.20;;;;;;;3.96;64.19;101080.30;105309;1257;60456;-47
2023/03/17 07:30:51;;;;;;;3.50;1.30;;;;;;;3.91;64.12;101086.89;105256;1260;60363;-47
2023/03/17 07:33:20;;;;;;;4.20;1.30;;;;;;;3.89;64.16;101088.55;105663;1260;65868;-47
2023/03/17 07:35:49;;;;;;;6.10;2.60;;;;;;;3.96;64.14;101088.80;105582;1257;62896;-48
2023/03/17 07:38:18;;;;;;;4.00;1.30;;;;;;;4.00;64.39;101089.30;105234;1260;64923;-47
2023/03/17 07:40:47;;;;;;;4.50;1.50;;;;;;;4.03;64.29;101091.10;105748;1254;60445;-48
2023/03/17 07:43:18;;;;;;;9.20;1.60;;;;;;;4.08;64.22;101092.13;107682;1257;60569;-48
2023/03/17 07:45:46;;;;;;;6.20;2.00;;;;;;;4.09;64.26;101088.27;105344;1257;66294;-47
2023/03/17 07:48:17;;;;;;;5.70;1.80;;;;;;;4.09;64.20;101091.55;105479;1257;62594;-47
2023/03/17 07:50:47;;;;;;;5.50;3.00;;;;;;;4.14;63.76;101094.84;105479;1260;65141;-48
2023/03/17 07:53:15;;;;;;;3.40;1.20;;;;;;;4.20;63.74;101095.98;105508;1258;60479;-48
2023/03/17 07:55:47;;;;;;;7.20;2.10;;;;;;;4.20;63.87;101095.63;105437;1260;60447;-48
2023/03/17 07:58:15;;;;;;;5.50;3.30;;;;;;;4.24;63.43;101097.69;105448;1260;66271;-47
2023/03/17 08:00:47;;;;;;;4.70;1.90;;;;;;;4.16;63.39;101097.16;105322;1257;63089;-47
2023/03/17 08:03:18;;;;;;;3.40;1.60;;;;;;;4.13;63.19;101101.47;105485;1262;64978;-48
2023/03/17 08:05:52;;;;;;;3.70;1.00;;;;;;;4.15;63.32;101104.68;105356;1260;60550;-47
2023/03/17 08:08:26;;;;;;;8.00;3.70;;;;;;;4.12;63.31;101104.45;105398;1258;60483;-48
2023/03/17 08:11:02;;;;;;;4.70;1.50;;;;;;;4.12;63.50;101103.23;106489;1260;66177;-47
2023/03/17 08:13:31;;;;;;;4.00;1.40;;;;;;;4.09;63.61;101105.25;105449;1260;61628;-47
2023/03/17 08:16:02;;;;;;;3.90;1.60;;;;;;;4.10;63.51;101108.89;105301;1260;65010;-46
2023/03/17 08:18:32;;;;;;;5.10;1.70;;;;;;;4.10;63.62;101109.39;105335;1257;60541;-47
2023/03/17 08:21:01;;;;;;;6.60;1.90;;;;;;;4.16;63.53;101112.11;105388;1256;60537;-46
2023/03/17 08:23:29;;;;;;;3.30;1.20;;;;;;;4.20;63.27;101112.80;105452;1259;66359;-48
2023/03/17 08:25:59;;;;;;;3.90;1.60;;;;;;;4.21;63.20;101113.28;105403;1257;62928;-47
2023/03/17 08:28:30;;;;;;;4.20;1.90;;;;;;;4.19;63.46;101112.66;105433;1260;65013;-47
2023/03/17 08:31:12;;;;;;;5.80;1.40;;;;;;;4.19;63.39;101111.79;105465;1257;60545;-48
2023/03/17 08:33:41;;;;;;;4.90;1.60;;;;;;;4.18;63.42;101112.55;105351;1260;60538;-47
2023/03/17 08:36:10;;;;;;;5.40;2.00;;;;;;;4.21;63.43;101120.38;105251;1257;65123;-46
2023/03/17 08:38:40;;;;;;;6.40;3.60;;;;;;;4.28;63.11;101118.89;105309;1257;62401;-47
2023/03/17 08:41:17;;;;;;;4.90;1.50;;;;;;;4.28;63.08;101122.20;105165;1258;64802;-47
2023/03/17 08:43:46;;;;;;;4.30;1.40;;;;;;;4.25;63.09;101125.61;105354;1257;60447;-47
2023/03/17 08:46:15;;;;;;;4.80;1.80;;;;;;;4.23;63.26;101125.67;105343;1257;60539;-47
2023/03/17 08:48:46;;;;;;;4.60;1.80;;;;;;;4.23;63.65;101128.11;105385;1260;66247;-47
2023/03/17 08:51:15;;;;;;;6.40;3.10;;;;;;;4.30;63.45;101127.66;109068;1256;62634;-48
2023/03/17 08:53:50;;;;;;;3.40;1.50;;;;;;;4.39;62.90;101131.30;109174;1256;64824;-47
2023/03/17 08:56:18;;;;;;;6.00;3.20;;;;;;;4.41;62.75;101134.14;109043;1257;58247;-47
2023/03/17 08:58:47;;;;;;;4.80;2.00;;;;;;;4.42;62.77;101135.68;107818;1257;60452;-47
2023/03/17 09:01:16;;;;;;;3.70;1.30;;;;;;;4.42;62.76;101135.86;105139;1257;65927;-48
2023/03/17 09:03:44;;;;;;;3.60;1.50;;;;;;;4.43;62.86;101138.08;105785;1257;62648;-47
2023/03/17 09:06:15;;;;;;;8.30;3.30;;;;;;;4.43;62.76;101138.42;105242;1259;65144;-48
2023/03/17 09:08:46;;;;;;;3.50;1.30;;;;;;;4.41;62.52;101137.09;105261;1255;60392;-47
2023/03/17 09:11:16;;;;;;;10.00;3.50;;;;;;;4.44;62.78;101141.16;105317;1260;60396;-47
2023/03/17 09:13:46;;;;;;;5.60;2.00;;;;;;;4.47;63.07;101141.02;105156;1263;66076;-47
2023/03/17 09:16:17;;;;;;;8.70;4.10;;;;;;;4.52;63.12;101143.08;105315;1257;62580;-46
2023/03/17 09:18:45;;;;;;;4.60;1.80;;;;;;;4.50;63.27;101146.10;105670;1257;65027;-47
2023/03/17 09:21:15;;;;;;;9.80;4.00;;;;;;;4.49;63.36;101146.15;105215;1258;60601;-47
2023/03/17 09:23:43;;;;;;;5.20;2.40;;;;;;;4.49;63.48;101147.89;105425;1260;60357;-47
2023/03/17 09:26:11;;;;;;;5.40;2.40;;;;;;;4.49;63.10;101143.89;105296;1260;66229;-47
2023/03/17 09:28:39;;;;;;;5.80;2.00;;;;;;;4.47;63.01;101145.73;107337;1257;62617;-47
2023/03/17 09:31:10;;;;;;;6.40;3.20;;;;;;;4.44;63.43;101148.81;105232;1260;65027;-47
2023/03/17 09:33:40;;;;;;;4.90;1.70;;;;;;;4.41;63.72;101148.05;105353;1260;60431;-47
2023/03/17 09:36:09;;;;;;;4.90;1.30;;;;;;;4.41;63.96;101154.66;105351;1260;60555;-46
2023/03/17 09:38:38;;;;;;;5.30;1.60;;;;;;;4.44;63.88;101161.49;105494;1257;66202;-47
2023/03/17 09:41:16;;;;;;;5.60;3.10;;;;;;;4.43;63.91;101161.35;105250;1260;61371;-48
2023/03/17 09:44:20;;;;;;;5.30;1.50;;;;;;;4.41;64.24;101161.96;105366;1260;64826;-47
2023/03/17 09:47:05;;;;;;;4.60;1.40;;;;;;;4.39;64.39;101164.46;105289;1257;60494;-47
2023/03/17 09:49:48;;;;;;;4.50;1.40;;;;;;;4.41;64.42;101163.52;105291;1258;60534;-47
2023/03/17 09:52:22;;;;;;;6.20;2.50;;;;;;;4.43;64.28;101164.13;105319;1258;66289;-46
2023/03/17 09:54:50;;;;;;;5.40;1.80;;;;;;;4.37;64.36;101163.17;105236;1258;62593;-47
2023/03/17 09:57:35;;;;;;;4.80;1.30;;;;;;;4.28;64.57;101163.35;105295;1260;63765;-47
2023/03/17 10:00:14;;;;;;;5.10;1.70;;;;;;;4.24;64.88;101164.05;105254;1257;60562;-47
2023/03/17 10:02:43;;;;;;;6.20;1.80;;;;;;;4.25;64.86;101166.79;105561;1262;60533;-47
2023/03/17 10:05:25;;;;;;;5.80;3.00;;;;;;;4.26;64.83;101168.32;105277;1258;66256;-48
2023/03/17 10:08:19;;;;;;;3.90;1.30;;;;;;;4.26;64.96;101169.52;105470;1260;62901;-46
2023/03/17 10:11:16;;;;;;;4.70;1.60;;;;;;;4.27;64.86;101173.64;105774;1258;65071;-47
2023/03/17 10:14:01;;;;;;;3.10;1.00;;;;;;;4.34;64.74;101175.08;105419;1257;60561;-47
2023/03/17 10:16:47;;;;;;;3.60;1.60;;;;;;;4.37;64.66;101176.21;105717;1257;60489;-47
2023/03/17 10:19:27;;;;;;;3.30;1.20;;;;;;;4.34;64.52;101178.73;105396;1260;66315;-47
2023/03/17 10:22:24;;;;;;;3.50;1.10;;;;;;;4.28;64.69;101174.83;105757;1260;62657;-47
2023/03/17 10:24:55;;;;;;;4.40;1.60;;;;;;;4.33;64.61;101173.08;105359;1260;65175;-47
2023/03/17 10:27:30;;;;;;;3.30;1.10;;;;;;;4.33;64.60;101168.38;105374;1259;60446;-47
2023/03/17 10:29:59;;;;;;;5.00;1.50;;;;;;;4.36;64.43;101171.90;106993;1257;59292;-47
2023/03/17 10:32:29;;;;;;;6.00;1.50;;;;;;;4.32;64.72;101171.55;105373;1258;66281;-47
2023/03/17 10:34:58;;;;;;;4.20;1.70;;;;;;;4.29;64.74;101171.48;105440;1260;61318;-48
2023/03/17 10:37:28;;;;;;;7.40;3.00;;;;;;;4.36;64.83;101167.56;105317;1261;64780;-47
2023/03/17 10:39:58;;;;;;;4.40;1.60;;;;;;;4.40;64.58;101172.43;105421;1257;60620;-47
2023/03/17 10:42:29;;;;;;;4.20;1.60;;;;;;;4.43;64.61;101176.13;105481;1269;60412;-47
2023/03/17 10:45:00;;;;;;;4.70;1.50;;;;;;;4.42;64.57;101178.41;108829;1258;66258;-47
2023/03/17 10:47:29;;;;;;;4.80;1.70;;;;;;;4.41;64.49;101179.68;105322;1260;62734;-47
2023/03/17 10:50:38;;;;;;;5.50;2.00;;;;;;;4.43;64.30;101182.00;106981;1258;64030;-47
2023/03/17 10:53:17;;;;;;;3.00;0.80;;;;;;;4.41;64.34;101181.76;105467;1260;60421;-47
2023/03/17 10:55:50;;;;;;;3.70;1.50;;;;;;;4.37;64.53;101186.42;105402;1257;60461;-46
2023/03/17 10:58:45;;;;;;;3.40;1.10;;;;;;;4.38;64.48;101186.23;105409;1260;65960;-48
2023/03/17 11:01:27;;;;;;;4.80;2.10;;;;;;;4.40;64.43;101182.48;105246;1258;62731;-46
2023/03/17 11:03:56;;;;;;;3.80;1.40;;;;;;;4.39;64.48;101184.63;105756;1258;65176;-46
2023/03/17 11:06:36;;;;;;;3.90;1.50;;;;;;;4.35;64.59;101187.73;105235;1262;60591;-46
2023/03/17 11:09:08;;;;;;;5.90;2.50;;;;;;;4.33;64.80;101186.58;105376;1257;60440;-47
2023/03/17 11:11:44;;;;;;;6.40;1.80;;;;;;;4.36;64.66;101188.23;105372;1260;66250;-47
2023/03/17 11:14:15;;;;;;;5.70;2.70;;;;;;;4.37;64.63;101193.38;105275;1260;62846;-47
2023/03/17 11:16:54;;;;;;;4.40;1.20;;;;;;;4.34;64.72;101192.48;105334;1257;73072;-47
2023/03/17 11:19:30;;;;;;;4.90;1.30;;;;;;;4.43;64.54;101191.58;105316;1258;60457;-46
2023/03/17 11:22:08;;;;;;;3.80;1.40;;;;;;;4.70;63.89;101196.55;105393;1260;60556;-47
2023/03/17 11:25:03;;;;;;;6.50;1.60;;;;;;;4.74;63.40;101194.98;105371;1260;66246;-46
2023/03/17 11:28:01;;;;;;;5.00;2.20;;;;;;;4.71;63.35;101205.34;105240;1260;63144;-52
2023/03/17 11:30:31;;;;;;;6.00;2.50;;;;;;;4.60;63.84;101203.02;105255;1257;65061;-53
2023/03/17 11:33:21;;;;;;;4.30;1.40;;;;;;;4.42;64.45;101198.55;105254;1257;60577;-53
2023/03/17 11:35:53;;;;;;;6.30;1.80;;;;;;;4.43;64.51;101199.05;105824;1262;60479;-52
2023/03/17 11:38:27;;;;;;;6.70;2.60;;;;;;;4.40;64.60;101199.52;105337;1259;65878;-53
2023/03/17 11:41:44;;;;;;;3.10;0.90;;;;;;;4.39;64.67;101199.56;105467;1257;62785;-53
2023/03/17 11:44:19;;;;;;;5.10;1.40;;;;;;;4.43;64.68;101197.15;105384;1260;65270;-53
2023/03/17 11:47:07;;;;;;;3.40;0.90;;;;;;;4.43;64.57;101197.83;105355;1257;61766;-54